createdAt,value
2023-03-29T00:00:19.415Z,16.60
2023-03-29T00:01:42.490Z,18.02
2023-03-29T00:03:04.321Z,16.88
2023-03-29T00:04:27.713Z,17.00
2023-03-29T00:05:49.583Z,16.92
2023-03-29T00:08:35.398Z,17.85
2023-03-29T00:09:56.824Z,17.95
2023-03-29T00:11:19.117Z,17.13
2023-03-29T00:14:02.790Z,17.17
2023-03-29T00:15:24.953Z,17.17
2023-03-29T00:18:09.109Z,16.33
2023-03-29T00:19:35.710Z,17.13
2023-03-29T00:20:57.885Z,16.73
2023-03-29T00:22:19.825Z,17.00
2023-03-29T00:23:55.967Z,15.35
2023-03-29T00:25:17.249Z,16.65
2023-03-29T00:26:39.577Z,17.50
2023-03-29T00:28:03.320Z,18.23
2023-03-29T00:29:25.256Z,16.90
2023-03-29T00:30:47.181Z,18.45
2023-03-29T00:33:30.546Z,16.23
2023-03-29T00:34:52.688Z,17.92
2023-03-29T00:36:14.771Z,17.95
2023-03-29T00:37:35.778Z,18.00
2023-03-29T00:38:59.247Z,17.27
2023-03-29T00:40:22.208Z,18.55
2023-03-29T00:43:10.388Z,18.52
2023-03-29T00:44:57.364Z,18.33
2023-03-29T00:46:19.178Z,18.02
2023-03-29T00:47:46.308Z,17.83
2023-03-29T00:49:57.135Z,18.50
2023-03-29T00:51:20.858Z,18.48
2023-03-29T00:52:44.576Z,19.52
2023-03-29T00:54:14.739Z,18.27
2023-03-29T00:55:39.176Z,18.25
2023-03-29T00:57:04.127Z,17.25
2023-03-29T00:58:31.781Z,17.70
2023-03-29T00:59:54.971Z,19.17
2023-03-29T01:01:26.127Z,18.05
2023-03-29T01:02:54.604Z,17.27
2023-03-29T01:04:21.982Z,18.10
2023-03-29T01:05:48.954Z,19.10
2023-03-29T01:07:21.514Z,18.98
2023-03-29T01:08:48.020Z,17.95
2023-03-29T01:10:15.694Z,18.40
2023-03-29T01:11:43.294Z,19.05
2023-03-29T01:13:10.780Z,18.63
2023-03-29T01:14:36.112Z,19.08
2023-03-29T01:16:00.644Z,19.50
2023-03-29T01:17:25.633Z,18.13
2023-03-29T01:18:48.287Z,18.67
2023-03-29T01:20:15.091Z,19.10
2023-03-29T01:21:42.612Z,18.73
2023-03-29T01:23:21.416Z,17.95
2023-03-29T01:25:00.377Z,18.25
2023-03-29T01:26:32.628Z,17.83
2023-03-29T01:28:02.498Z,19.00
2023-03-29T01:29:28.023Z,18.42
2023-03-29T01:30:56.253Z,17.63
2023-03-29T01:32:23.677Z,17.80
2023-03-29T01:33:51.068Z,17.63
2023-03-29T01:35:16.523Z,17.40
2023-03-29T01:36:42.646Z,16.85
2023-03-29T01:38:09.914Z,18.33
2023-03-29T01:39:36.511Z,19.17
2023-03-29T01:40:58.383Z,15.98
2023-03-29T01:42:31.882Z,17.75
2023-03-29T01:44:00.334Z,16.80
2023-03-29T01:45:25.256Z,16.33
2023-03-29T01:46:53.838Z,17.45
2023-03-29T01:48:20.312Z,17.90
2023-03-29T01:49:48.082Z,17.33
2023-03-29T01:51:14.594Z,16.75
2023-03-29T01:52:40.638Z,17.85
2023-03-29T01:54:09.324Z,16.80
2023-03-29T01:55:35.057Z,15.32
2023-03-29T01:57:01.253Z,17.65
2023-03-29T01:58:29.866Z,17.17
2023-03-29T01:59:57.695Z,17.08
2023-03-29T02:01:23.422Z,15.40
2023-03-29T02:02:47.169Z,16.75
2023-03-29T02:04:14.280Z,15.52
2023-03-29T02:05:38.058Z,15.52
2023-03-29T02:07:02.063Z,14.93
2023-03-29T02:08:24.393Z,15.15
2023-03-29T02:09:47.118Z,15.90
2023-03-29T02:11:11.600Z,15.65
2023-03-29T02:12:37.320Z,14.48
2023-03-29T02:13:59.421Z,15.65
2023-03-29T02:15:23.587Z,14.55
2023-03-29T02:16:46.679Z,14.65
2023-03-29T02:18:08.178Z,14.55
2023-03-29T02:19:30.405Z,15.07
2023-03-29T02:20:54.287Z,16.35
2023-03-29T02:22:17.568Z,16.65
2023-03-29T02:23:45.549Z,16.33
2023-03-29T02:25:09.887Z,16.38
2023-03-29T02:26:33.916Z,15.40
2023-03-29T02:27:57.228Z,15.80
2023-03-29T02:29:18.436Z,16.77
2023-03-29T02:30:50.989Z,16.88
2023-03-29T02:32:18.636Z,17.30
2023-03-29T02:33:48.126Z,18.30
2023-03-29T02:35:17.578Z,16.88
2023-03-29T02:36:46.768Z,18.02
2023-03-29T02:38:12.578Z,17.70
2023-03-29T02:39:37.100Z,18.27
2023-03-29T02:41:03.898Z,17.95
2023-03-29T02:42:27.802Z,18.95
2023-03-29T02:43:50.028Z,18.45
2023-03-29T02:45:16.567Z,19.05
2023-03-29T02:46:39.894Z,17.40
2023-03-29T02:48:06.696Z,18.23
2023-03-29T02:49:28.069Z,16.42
2023-03-29T02:50:54.856Z,17.83
2023-03-29T02:52:19.439Z,17.67
2023-03-29T02:53:44.780Z,16.73
2023-03-29T02:55:15.042Z,16.23
2023-03-29T02:56:46.512Z,18.17
2023-03-29T02:58:08.793Z,15.90
2023-03-29T02:59:33.452Z,14.98
2023-03-29T03:00:57.779Z,17.58
2023-03-29T03:02:20.789Z,17.40
2023-03-29T03:03:43.048Z,16.48
2023-03-29T03:05:04.527Z,15.45
2023-03-29T03:06:29.382Z,16.42
2023-03-29T03:07:51.982Z,15.95
2023-03-29T03:09:17.035Z,16.27
2023-03-29T03:10:43.256Z,15.85
2023-03-29T03:12:04.657Z,15.60
2023-03-29T03:13:26.649Z,14.93
2023-03-29T03:14:49.945Z,14.32
2023-03-29T03:16:12.315Z,14.93
2023-03-29T03:17:40.035Z,15.93
2023-03-29T03:19:02.338Z,14.38
2023-03-29T03:20:26.826Z,14.02
2023-03-29T03:21:51.063Z,13.23
2023-03-29T03:23:15.143Z,14.38
2023-03-29T03:24:37.363Z,15.07
2023-03-29T03:26:00.144Z,13.30
2023-03-29T03:27:22.274Z,13.57
2023-03-29T03:28:44.150Z,13.95
2023-03-29T03:30:19.445Z,13.70
2023-03-29T03:32:15.738Z,12.95
2023-03-29T03:34:04.457Z,13.65
2023-03-29T03:35:41.747Z,13.18
2023-03-29T03:37:13.933Z,13.57
2023-03-29T03:38:39.432Z,14.00
2023-03-29T03:40:01.983Z,12.63
2023-03-29T03:41:26.662Z,13.02
2023-03-29T03:42:49.593Z,13.15
2023-03-29T03:44:13.415Z,11.88
2023-03-29T03:45:37.443Z,12.88
2023-03-29T03:47:09.938Z,12.38
2023-03-29T03:48:34.601Z,11.50
2023-03-29T03:50:19.994Z,12.68
2023-03-29T03:51:45.570Z,11.90
2023-03-29T03:53:09.437Z,11.48
2023-03-29T03:54:50.423Z,11.82
2023-03-29T03:56:38.780Z,11.75
2023-03-29T03:58:29.627Z,12.15
2023-03-29T03:59:52.446Z,13.00
2023-03-29T04:01:24.087Z,12.00
2023-03-29T04:02:57.749Z,11.15
2023-03-29T04:04:19.887Z,11.20
2023-03-29T04:06:03.902Z,11.63
2023-03-29T04:07:42.790Z,13.02
2023-03-29T04:09:22.765Z,11.45
2023-03-29T04:10:58.505Z,10.95
2023-03-29T04:12:26.250Z,11.45
2023-03-29T04:15:39.319Z,10.60
2023-03-29T04:17:07.475Z,11.32
2023-03-29T04:18:44.232Z,11.70
2023-03-29T04:20:11.729Z,11.70
2023-03-29T04:21:38.525Z,11.93
2023-03-29T04:23:00.666Z,12.57
2023-03-29T04:24:24.830Z,11.52
2023-03-29T04:26:07.840Z,11.77
2023-03-29T04:27:42.746Z,11.90
2023-03-29T04:29:19.037Z,12.02
2023-03-29T04:30:48.399Z,12.15
2023-03-29T04:32:15.223Z,13.40
2023-03-29T04:33:51.697Z,13.50
2023-03-29T04:35:14.894Z,12.63
2023-03-29T04:36:37.382Z,12.95
2023-03-29T04:38:04.553Z,11.90
2023-03-29T04:39:34.075Z,13.38
2023-03-29T04:40:59.292Z,14.57
2023-03-29T04:42:42.487Z,13.63
2023-03-29T04:44:04.656Z,12.35
2023-03-29T04:45:27.564Z,14.13
2023-03-29T04:47:05.134Z,15.48
2023-03-29T04:50:36.346Z,12.40
2023-03-29T04:51:57.740Z,12.88
2023-03-29T04:53:23.391Z,12.52
2023-03-29T04:54:47.024Z,12.57
2023-03-29T04:56:20.052Z,13.38
2023-03-29T04:58:06.491Z,11.57
2023-03-29T04:59:32.714Z,12.63
2023-03-29T05:00:58.290Z,12.13
2023-03-29T05:02:24.733Z,12.82
2023-03-29T05:05:28.164Z,12.35
2023-03-29T05:08:44.748Z,13.00
2023-03-29T05:10:50.316Z,13.25
2023-03-29T05:12:13.173Z,12.27
2023-03-29T05:13:55.273Z,12.82
2023-03-29T05:15:22.228Z,12.75
2023-03-29T05:16:45.154Z,13.07
2023-03-29T05:18:07.255Z,12.82
2023-03-29T05:19:29.850Z,13.18
2023-03-29T05:20:53.150Z,12.68
2023-03-29T05:22:21.824Z,12.80
2023-03-29T05:23:45.027Z,12.43
2023-03-29T05:25:06.921Z,12.57
2023-03-29T05:26:29.781Z,11.95
2023-03-29T05:27:53.236Z,12.10
2023-03-29T05:29:14.655Z,12.35
2023-03-29T05:30:40.701Z,12.68
2023-03-29T05:32:10.069Z,12.45
2023-03-29T05:33:37.388Z,13.15
2023-03-29T05:35:00.578Z,12.20
2023-03-29T05:37:48.504Z,12.65
2023-03-29T05:39:11.178Z,11.88
2023-03-29T05:40:36.095Z,13.23
2023-03-29T05:42:32.977Z,13.02
2023-03-29T05:44:00.910Z,12.40
2023-03-29T05:45:24.862Z,12.20
2023-03-29T05:46:46.457Z,12.90
2023-03-29T05:48:11.879Z,12.80
2023-03-29T05:49:38.175Z,12.52
2023-03-29T05:51:17.534Z,12.32
2023-03-29T05:52:41.154Z,13.73
2023-03-29T05:54:04.776Z,11.60
2023-03-29T05:55:27.165Z,11.80
2023-03-29T05:56:49.241Z,11.70
2023-03-29T05:58:12.451Z,11.40
2023-03-29T05:59:35.596Z,10.98
2023-03-29T06:01:00.787Z,12.02
2023-03-29T06:02:46.607Z,11.57
2023-03-29T06:04:09.333Z,11.43
2023-03-29T06:05:41.152Z,11.07
2023-03-29T06:07:05.116Z,11.60
2023-03-29T06:08:28.715Z,11.85
2023-03-29T06:10:00.620Z,11.82
2023-03-29T06:11:26.422Z,11.75
2023-03-29T06:13:12.069Z,11.10
2023-03-29T06:14:34.637Z,11.95
2023-03-29T06:16:19.063Z,10.65
2023-03-29T06:19:02.296Z,11.57
2023-03-29T06:20:25.619Z,11.55
2023-03-29T06:21:54.388Z,11.60
2023-03-29T06:23:22.425Z,11.35
2023-03-29T06:24:44.920Z,10.50
2023-03-29T06:26:20.164Z,10.68
2023-03-29T06:27:43.158Z,11.07
2023-03-29T06:29:05.878Z,11.10
2023-03-29T06:30:29.008Z,10.55
2023-03-29T06:31:51.937Z,11.23
2023-03-29T06:33:34.239Z,9.88
2023-03-29T06:35:16.636Z,10.55
2023-03-29T06:36:47.804Z,9.95
2023-03-29T06:38:11.252Z,10.90
2023-03-29T06:39:57.105Z,11.60
2023-03-29T06:41:34.732Z,9.70
2023-03-29T06:43:02.490Z,11.20
2023-03-29T06:44:28.500Z,10.13
2023-03-29T06:45:59.182Z,10.80
2023-03-29T06:47:31.679Z,11.68
2023-03-29T06:48:53.992Z,11.00
2023-03-29T06:50:21.293Z,10.65
2023-03-29T06:51:58.322Z,10.00
2023-03-29T06:53:20.431Z,11.05
2023-03-29T06:54:50.598Z,10.23
2023-03-29T06:56:14.723Z,10.73
2023-03-29T06:57:40.122Z,10.70
2023-03-29T06:59:02.718Z,10.00
2023-03-29T07:00:42.405Z,9.57
2023-03-29T07:02:13.582Z,9.20
2023-03-29T07:03:57.359Z,9.85
2023-03-29T07:05:28.006Z,9.52
2023-03-29T07:06:58.874Z,8.30
2023-03-29T07:08:21.435Z,9.27
2023-03-29T07:09:55.653Z,9.27
2023-03-29T07:11:36.787Z,9.85
2023-03-29T07:13:27.752Z,8.70
2023-03-29T07:14:56.399Z,10.07
2023-03-29T07:16:22.539Z,10.25
2023-03-29T07:18:05.946Z,9.98
2023-03-29T07:19:30.331Z,8.32
2023-03-29T07:21:04.236Z,8.82
2023-03-29T07:22:31.332Z,8.40
2023-03-29T07:23:57.221Z,8.40
2023-03-29T07:25:20.385Z,8.18
2023-03-29T07:26:52.137Z,7.95
2023-03-29T07:28:38.975Z,7.60
2023-03-29T07:30:12.156Z,7.60
2023-03-29T07:31:46.890Z,7.85
2023-03-29T07:33:48.751Z,7.18
2023-03-29T07:35:48.281Z,7.05
2023-03-29T07:37:36.567Z,7.15
2023-03-29T07:39:04.011Z,7.18
2023-03-29T07:40:36.975Z,7.18
2023-03-29T07:45:36.705Z,7.65
2023-03-29T07:47:26.257Z,8.52
2023-03-29T07:48:48.755Z,7.65
2023-03-29T07:50:13.717Z,7.22
2023-03-29T07:51:37.224Z,8.27
2023-03-29T07:53:03.973Z,7.60
2023-03-29T07:54:28.857Z,7.80
2023-03-29T07:56:10.378Z,7.38
2023-03-29T07:57:55.729Z,6.97
2023-03-29T07:59:17.788Z,7.22
2023-03-29T08:00:45.497Z,7.57
2023-03-29T08:02:29.864Z,6.57
2023-03-29T08:03:56.935Z,6.35
2023-03-29T08:05:40.803Z,5.40
2023-03-29T08:07:09.478Z,6.10
2023-03-29T08:09:01.553Z,5.88
2023-03-29T08:10:23.047Z,6.63
2023-03-29T08:11:59.947Z,6.72
2023-03-29T08:13:28.648Z,7.63
2023-03-29T08:15:16.168Z,6.53
2023-03-29T08:18:36.415Z,5.97
2023-03-29T08:20:02.499Z,5.55
2023-03-29T08:21:24.658Z,5.93
2023-03-29T08:22:50.440Z,5.95
2023-03-29T08:24:26.585Z,5.47
2023-03-29T08:25:53.656Z,5.97
2023-03-29T08:27:15.864Z,6.10
2023-03-29T08:28:41.012Z,6.72
2023-03-29T08:30:05.315Z,5.47
2023-03-29T08:31:29.829Z,6.95
2023-03-29T08:32:55.409Z,6.10
2023-03-29T08:34:18.183Z,5.43
2023-03-29T08:37:11.181Z,5.15
2023-03-29T08:38:37.749Z,5.93
2023-03-29T08:40:00.376Z,5.75
2023-03-29T08:41:42.176Z,5.38
2023-03-29T08:43:22.416Z,5.57
2023-03-29T08:45:14.744Z,5.03
2023-03-29T08:46:45.881Z,5.93
2023-03-29T08:48:35.604Z,5.68
2023-03-29T08:50:02.021Z,6.18
2023-03-29T08:51:38.238Z,5.43
2023-03-29T08:53:05.975Z,6.00
2023-03-29T08:54:51.836Z,5.57
2023-03-29T08:56:42.068Z,5.75
2023-03-29T08:58:19.652Z,5.15
2023-03-29T08:59:43.732Z,5.28
2023-03-29T09:01:11.472Z,5.45
2023-03-29T09:02:47.182Z,4.97
2023-03-29T09:04:15.271Z,3.90
2023-03-29T09:05:49.550Z,4.78
2023-03-29T09:07:26.638Z,4.75
2023-03-29T09:08:53.817Z,4.75
2023-03-29T09:10:54.984Z,4.75
2023-03-29T09:12:27.652Z,4.25
2023-03-29T09:13:59.810Z,4.00
2023-03-29T09:15:25.471Z,4.60
2023-03-29T09:18:25.631Z,4.10
2023-03-29T09:19:56.154Z,4.68
2023-03-29T09:21:23.955Z,5.32
2023-03-29T09:22:53.479Z,4.40
2023-03-29T09:24:39.131Z,4.65
2023-03-29T09:26:18.837Z,4.85
2023-03-29T09:28:22.618Z,4.20
2023-03-29T09:29:59.713Z,4.28
2023-03-29T09:31:44.600Z,4.55
2023-03-29T09:33:14.236Z,4.60
2023-03-29T09:35:03.447Z,4.35
2023-03-29T09:36:42.102Z,4.65
2023-03-29T09:38:05.660Z,4.53
2023-03-29T09:39:31.407Z,4.90
2023-03-29T09:41:21.387Z,5.07
2023-03-29T09:42:46.158Z,4.63
2023-03-29T09:44:23.980Z,4.75
2023-03-29T09:45:57.997Z,4.60
2023-03-29T09:47:26.397Z,4.63
2023-03-29T09:48:51.834Z,4.70
2023-03-29T09:50:30.967Z,4.80
2023-03-29T09:52:00.996Z,4.47
2023-03-29T09:53:23.544Z,8.10
2023-03-29T09:55:07.861Z,4.70
2023-03-29T09:56:45.585Z,4.40
2023-03-29T09:58:16.273Z,4.15
2023-03-29T09:59:42.984Z,5.10
2023-03-29T10:01:10.404Z,4.70
2023-03-29T10:02:33.506Z,4.82
2023-03-29T10:03:55.502Z,4.85
2023-03-29T10:05:20.053Z,4.82
2023-03-29T10:06:49.290Z,5.40
2023-03-29T10:08:20.060Z,4.95
2023-03-29T10:09:44.801Z,4.93
2023-03-29T10:11:16.368Z,4.97
2023-03-29T10:12:38.869Z,4.63
2023-03-29T10:14:04.424Z,5.20
2023-03-29T10:15:30.126Z,5.55
2023-03-29T10:16:57.501Z,5.93
2023-03-29T10:18:19.380Z,5.45
2023-03-29T10:19:50.467Z,4.47
2023-03-29T10:21:16.826Z,4.97
2023-03-29T10:22:40.889Z,4.97
2023-03-29T10:24:02.787Z,4.47
2023-03-29T10:26:49.464Z,5.43
2023-03-29T10:28:16.282Z,5.00
2023-03-29T10:29:41.211Z,4.70
2023-03-29T10:31:04.207Z,4.38
2023-03-29T10:32:31.776Z,4.47
2023-03-29T10:33:55.621Z,4.43
2023-03-29T10:35:24.173Z,4.13
2023-03-29T10:36:54.776Z,5.00
2023-03-29T10:38:19.759Z,5.25
2023-03-29T10:39:41.944Z,5.10
2023-03-29T10:41:10.168Z,5.53
2023-03-29T10:42:32.854Z,7.55
2023-03-29T10:43:57.138Z,5.47
2023-03-29T10:45:27.706Z,7.70
2023-03-29T10:46:49.965Z,7.53
2023-03-29T10:48:14.127Z,7.78
2023-03-29T10:50:06.121Z,4.95
2023-03-29T10:51:31.500Z,4.82
2023-03-29T10:52:55.301Z,5.40
2023-03-29T10:54:21.060Z,4.32
2023-03-29T10:55:56.022Z,5.22
2023-03-29T10:57:32.696Z,4.53
2023-03-29T10:59:22.064Z,5.53
2023-03-29T11:00:48.492Z,5.22
2023-03-29T11:02:43.413Z,4.97
2023-03-29T11:04:17.575Z,4.70
2023-03-29T11:05:46.569Z,6.38
2023-03-29T11:07:27.292Z,5.60
2023-03-29T11:08:57.573Z,5.63
2023-03-29T11:10:32.338Z,6.13
2023-03-29T11:12:31.565Z,5.30
2023-03-29T11:14:00.060Z,5.13
2023-03-29T11:15:35.440Z,5.43
2023-03-29T11:17:09.579Z,4.47
2023-03-29T11:18:54.888Z,4.38
2023-03-29T11:20:29.658Z,5.47
2023-03-29T11:22:00.440Z,5.10
2023-03-29T11:23:39.970Z,3.90
2023-03-29T11:25:19.033Z,4.22
2023-03-29T11:26:53.870Z,3.95
2023-03-29T11:28:25.610Z,4.07
2023-03-29T11:29:59.417Z,3.83
2023-03-29T11:31:34.478Z,3.88
2023-03-29T11:33:07.090Z,4.30
2023-03-29T11:34:38.015Z,4.38
2023-03-29T11:36:06.874Z,4.20
2023-03-29T11:37:36.109Z,4.38
2023-03-29T11:39:05.556Z,4.20
2023-03-29T11:40:44.814Z,5.03
2023-03-29T11:42:13.166Z,5.13
2023-03-29T11:43:39.581Z,4.50
2023-03-29T11:45:08.291Z,4.80
2023-03-29T11:46:36.547Z,4.68
2023-03-29T11:48:12.320Z,4.90
2023-03-29T11:49:42.568Z,4.82
2023-03-29T11:51:12.130Z,4.75
2023-03-29T11:52:39.175Z,4.50
2023-03-29T11:54:07.124Z,4.82
2023-03-29T11:55:33.743Z,4.10
2023-03-29T11:57:02.839Z,5.43
2023-03-29T11:58:31.298Z,4.55
2023-03-29T12:00:00.280Z,5.32
2023-03-29T12:01:34.774Z,4.85
2023-03-29T12:03:01.404Z,4.93
2023-03-29T12:04:28.771Z,5.50
2023-03-29T12:05:56.853Z,5.47
2023-03-29T12:07:25.336Z,5.45
2023-03-29T12:08:54.103Z,5.45
2023-03-29T12:10:21.231Z,4.93
2023-03-29T12:11:54.204Z,5.35
2023-03-29T12:13:20.704Z,4.72
2023-03-29T12:14:57.897Z,4.10
2023-03-29T12:16:27.740Z,4.18
2023-03-29T12:17:56.274Z,4.80
2023-03-29T12:19:22.981Z,5.18
2023-03-29T12:20:49.884Z,4.85
2023-03-29T12:22:12.957Z,4.80
2023-03-29T12:23:39.733Z,4.95
2023-03-29T12:25:10.364Z,5.93
2023-03-29T12:26:53.898Z,4.80
2023-03-29T12:28:58.201Z,5.05
2023-03-29T12:33:48.835Z,5.10
2023-03-29T12:35:56.239Z,4.95
2023-03-29T12:40:21.743Z,4.20
2023-03-29T12:45:09.409Z,4.20
2023-03-29T12:46:37.238Z,4.65
2023-03-29T12:48:30.450Z,3.92
2023-03-29T12:50:03.968Z,5.03
2023-03-29T12:51:43.128Z,4.55
2023-03-29T12:56:39.971Z,4.32
2023-03-29T12:58:30.455Z,4.80
2023-03-29T13:00:36.906Z,4.50
2023-03-29T13:02:48.981Z,4.70
2023-03-29T13:11:06.971Z,5.05
2023-03-29T13:13:03.504Z,4.55
2023-03-29T13:15:24.259Z,4.10
2023-03-29T13:18:16.097Z,4.60
2023-03-29T13:20:40.822Z,3.70
2023-03-29T13:22:17.527Z,4.20
2023-03-29T13:23:50.503Z,4.20
2023-03-29T13:27:20.930Z,4.60
2023-03-29T13:29:23.927Z,4.80
2023-03-29T13:31:00.365Z,4.50
2023-03-29T13:32:55.407Z,4.65
2023-03-29T13:35:11.240Z,4.13
2023-03-29T13:39:43.007Z,4.57
2023-03-29T13:41:28.483Z,5.00
2023-03-29T13:56:59.902Z,4.47
2023-03-29T13:59:03.222Z,4.53
2023-03-29T14:00:59.208Z,4.70
2023-03-29T14:03:13.848Z,4.97
2023-03-29T14:05:37.055Z,5.07
2023-03-29T14:12:24.013Z,4.43
2023-03-29T14:21:20.193Z,5.03
2023-03-29T14:23:35.241Z,5.07
2023-03-29T14:25:16.692Z,4.70
2023-03-29T14:27:09.144Z,4.47
2023-03-29T14:31:44.812Z,4.55
2023-03-29T14:33:20.031Z,4.70
2023-03-29T14:34:48.831Z,4.57
2023-03-29T14:36:22.579Z,4.30
2023-03-29T14:38:28.172Z,4.50
2023-03-29T14:47:20.469Z,4.97
2023-03-29T14:55:49.779Z,4.35
2023-03-29T14:57:58.669Z,4.38
2023-03-29T15:00:15.816Z,4.57
2023-03-29T15:02:44.079Z,4.40
2023-03-29T16:13:55.467Z,5.97
2023-03-29T16:22:48.538Z,5.55
2023-03-29T16:38:24.673Z,5.07
2023-03-29T16:39:51.907Z,5.05
2023-03-29T16:41:20.178Z,5.22
2023-03-29T16:43:29.209Z,5.00
2023-03-29T16:45:06.155Z,4.88
2023-03-29T16:48:43.567Z,5.20
2023-03-29T16:50:08.551Z,5.18
2023-03-29T16:51:39.994Z,5.40
2023-03-29T16:53:37.531Z,4.78
2023-03-29T16:55:02.609Z,4.78
2023-03-29T16:56:28.459Z,5.40
2023-03-29T16:57:51.355Z,4.43
2023-03-29T16:59:19.731Z,4.88
2023-03-29T17:00:42.046Z,5.78
2023-03-29T17:02:06.901Z,5.07
2023-03-29T17:03:30.527Z,5.40
2023-03-29T17:04:54.092Z,5.53
2023-03-29T17:06:19.818Z,4.85
2023-03-29T17:07:43.582Z,5.30
2023-03-29T17:09:21.650Z,5.38
2023-03-29T17:13:43.052Z,5.68
2023-03-29T17:14:34.906Z,5.70
2023-03-29T17:16:37.150Z,5.72
2023-03-29T17:18:15.749Z,5.55
2023-03-29T17:21:14.126Z,6.30
2023-03-29T17:22:38.726Z,5.32
2023-03-29T17:24:04.765Z,5.82
2023-03-29T17:25:40.825Z,6.05
2023-03-29T17:27:03.396Z,6.25
2023-03-29T17:28:31.988Z,5.70
2023-03-29T17:29:54.991Z,6.43
2023-03-29T17:31:19.693Z,6.25
2023-03-29T17:32:45.966Z,6.05
2023-03-29T17:34:12.235Z,6.18
2023-03-29T17:35:36.360Z,5.90
2023-03-29T17:37:04.842Z,6.40
2023-03-29T17:38:30.767Z,6.55
2023-03-29T17:39:57.069Z,5.70
2023-03-29T17:41:35.618Z,5.60
2023-03-29T17:43:06.144Z,5.85
2023-03-29T17:44:35.975Z,6.03
2023-03-29T17:46:01.858Z,5.93
2023-03-29T17:47:24.187Z,5.90
2023-03-29T17:48:49.042Z,5.72
2023-03-29T17:50:13.058Z,5.68
2023-03-29T17:51:37.100Z,5.78
2023-03-29T17:53:07.091Z,6.15
2023-03-29T17:54:29.467Z,6.05
2023-03-29T17:55:57.440Z,5.88
2023-03-29T17:57:20.201Z,6.13
2023-03-29T17:58:49.248Z,6.85
2023-03-29T18:00:14.375Z,6.70
2023-03-29T18:01:39.652Z,6.70
2023-03-29T18:03:02.630Z,7.72
2023-03-29T18:04:31.664Z,7.30
2023-03-29T18:05:56.525Z,6.28
2023-03-29T18:07:21.352Z,6.80
2023-03-29T18:08:46.044Z,6.40
2023-03-29T18:10:15.910Z,7.28
2023-03-29T18:14:38.566Z,7.07
2023-03-29T18:16:01.904Z,7.15
2023-03-29T18:17:30.078Z,8.07
2023-03-29T18:19:05.922Z,7.10
2023-03-29T18:20:39.400Z,6.90
2023-03-29T18:22:02.201Z,7.07
2023-03-29T18:23:30.221Z,7.30
2023-03-29T18:25:13.841Z,7.28
2023-03-29T18:27:16.034Z,6.68
2023-03-29T18:28:42.886Z,6.82
2023-03-29T18:30:16.967Z,8.45
2023-03-29T18:31:42.975Z,7.18
2023-03-29T18:33:47.268Z,7.75
2023-03-29T18:42:40.939Z,6.78
2023-03-29T19:00:21.644Z,10.32
2023-03-29T19:01:53.484Z,9.18
2023-03-29T19:05:09.677Z,9.97
2023-03-29T19:06:28.036Z,9.90
2023-03-29T19:07:50.642Z,9.95
2023-03-29T19:11:41.168Z,8.98
2023-03-29T19:20:25.893Z,8.68
2023-03-29T19:22:09.268Z,9.73
2023-03-29T19:24:52.960Z,9.02
2023-03-29T19:30:02.300Z,9.88
2023-03-29T19:44:08.543Z,9.00
2023-03-29T19:46:41.590Z,9.43
2023-03-29T19:52:23.118Z,8.35
2023-03-29T19:54:35.124Z,9.35
2023-03-29T20:02:45.778Z,9.45
2023-03-29T20:06:43.039Z,9.57
2023-03-29T20:18:23.250Z,9.13
2023-03-29T21:45:07.474Z,10.32
2023-03-29T21:56:34.852Z,10.45
2023-03-29T21:58:45.091Z,9.80
2023-03-29T22:01:40.504Z,10.50
2023-03-29T22:05:41.668Z,10.07
2023-03-29T22:07:24.480Z,9.57
2023-03-29T22:09:39.908Z,10.23
2023-03-29T22:11:14.084Z,10.20
2023-03-29T22:31:35.510Z,10.70
2023-03-29T23:33:50.121Z,9.23
2023-03-29T23:43:20.763Z,9.18
2023-03-29T23:50:48.663Z,9.25
